createdAt,value
2022-11-10T00:00:55.035Z,12.10
2022-11-10T00:03:22.063Z,12.00
2022-11-10T00:05:49.080Z,12.10
2022-11-10T00:08:15.869Z,12.10
2022-11-10T00:10:57.614Z,12.10
2022-11-10T00:13:33.400Z,12.10
2022-11-10T00:16:21.030Z,12.00
2022-11-10T00:18:47.770Z,12.00
2022-11-10T00:21:15.889Z,12.00
2022-11-10T00:23:42.551Z,11.90
2022-11-10T00:26:14.961Z,12.00
2022-11-10T00:28:42.021Z,12.00
2022-11-10T00:31:09.058Z,11.80
2022-11-10T00:33:37.953Z,12.00
2022-11-10T00:36:05.551Z,12.00
2022-11-10T00:38:32.475Z,12.00
2022-11-10T00:41:02.991Z,12.00
2022-11-10T00:43:30.535Z,12.00
2022-11-10T00:45:57.295Z,12.10
2022-11-10T00:48:23.910Z,12.10
2022-11-10T00:50:50.522Z,12.20
2022-11-10T00:53:17.107Z,12.20
2022-11-10T00:55:43.808Z,12.20
2022-11-10T00:58:10.463Z,12.30
2022-11-10T01:00:37.336Z,12.20
2022-11-10T01:03:03.995Z,12.30
2022-11-10T01:05:31.813Z,12.20
2022-11-10T01:07:59.506Z,12.20
2022-11-10T01:10:27.022Z,12.30
2022-11-10T01:12:53.990Z,12.30
2022-11-10T01:15:24.492Z,12.30
2022-11-10T01:17:55.762Z,12.30
2022-11-10T01:20:23.258Z,12.00
2022-11-10T01:22:49.848Z,12.30
2022-11-10T01:25:16.555Z,12.30
2022-11-10T01:27:43.175Z,12.30
2022-11-10T01:30:10.113Z,12.30
2022-11-10T01:32:36.704Z,12.30
2022-11-10T01:35:03.402Z,12.30
2022-11-10T01:37:30.009Z,12.30
2022-11-10T01:39:56.699Z,12.30
2022-11-10T01:42:37.927Z,12.30
2022-11-10T01:45:22.591Z,12.30
2022-11-10T01:47:57.744Z,12.30
2022-11-10T01:50:27.440Z,12.30
2022-11-10T01:52:57.417Z,12.30
2022-11-10T01:55:25.083Z,12.30
2022-11-10T01:57:51.816Z,12.40
2022-11-10T02:00:19.774Z,12.30
2022-11-10T02:03:09.210Z,12.30
2022-11-10T02:05:36.407Z,12.30
2022-11-10T02:08:04.829Z,12.00
2022-11-10T02:10:31.420Z,12.30
2022-11-10T02:12:58.133Z,12.20
2022-11-10T02:15:25.450Z,12.20
2022-11-10T02:17:52.007Z,12.20
2022-11-10T02:20:21.263Z,12.20
2022-11-10T02:22:47.892Z,12.20
2022-11-10T02:25:19.297Z,12.20
2022-11-10T02:27:45.867Z,12.20
2022-11-10T02:30:13.037Z,12.10
2022-11-10T02:32:39.591Z,12.10
2022-11-10T02:35:06.788Z,12.20
2022-11-10T02:37:33.446Z,12.10
2022-11-10T02:40:00.051Z,12.10
2022-11-10T02:42:26.899Z,12.20
2022-11-10T02:44:53.639Z,12.10
2022-11-10T02:47:20.208Z,12.10
2022-11-10T02:49:46.765Z,12.10
2022-11-10T02:52:13.336Z,12.10
2022-11-10T02:54:39.874Z,12.10
2022-11-10T02:57:06.450Z,12.20
2022-11-10T02:59:33.064Z,12.10
2022-11-10T03:01:59.604Z,13.90
2022-11-10T03:04:26.151Z,12.10
2022-11-10T03:06:52.752Z,12.10
2022-11-10T03:09:19.369Z,12.10
2022-11-10T03:11:45.918Z,11.90
2022-11-10T03:14:12.458Z,12.10
2022-11-10T03:16:39.005Z,12.00
2022-11-10T03:19:05.614Z,12.10
2022-11-10T03:21:32.209Z,12.00
2022-11-10T03:23:58.762Z,12.00
2022-11-10T03:26:25.381Z,12.00
2022-11-10T03:28:51.942Z,12.00
2022-11-10T03:31:18.614Z,12.00
2022-11-10T03:33:45.168Z,12.00
2022-11-10T03:36:11.706Z,12.00
2022-11-10T03:38:38.278Z,12.00
2022-11-10T03:41:18.844Z,12.00
2022-11-10T03:43:46.281Z,11.90
2022-11-10T03:46:12.874Z,11.90
2022-11-10T03:48:39.397Z,11.90
2022-11-10T03:51:06.155Z,11.90
2022-11-10T03:53:32.745Z,11.90
2022-11-10T03:56:03.705Z,11.80
2022-11-10T03:58:30.282Z,11.80
2022-11-10T04:00:57.448Z,11.80
2022-11-10T04:03:25.121Z,11.70
2022-11-10T04:06:11.026Z,11.70
2022-11-10T04:08:56.525Z,11.70
2022-11-10T04:11:41.997Z,11.70
2022-11-10T04:14:27.471Z,11.70
2022-11-10T04:16:54.299Z,11.60
2022-11-10T04:19:21.337Z,11.60
2022-11-10T04:21:47.969Z,11.60
2022-11-10T04:24:14.853Z,11.50
2022-11-10T04:26:42.799Z,11.50
2022-11-10T04:29:11.339Z,11.50
2022-11-10T04:31:40.490Z,11.50
2022-11-10T04:34:08.959Z,11.50
2022-11-10T04:36:37.477Z,11.40
2022-11-10T04:39:04.995Z,11.40
2022-11-10T04:41:32.065Z,11.40
2022-11-10T04:44:06.422Z,11.30
2022-11-10T04:46:35.599Z,11.30
2022-11-10T04:49:03.546Z,11.20
2022-11-10T04:51:32.911Z,11.10
2022-11-10T04:54:00.141Z,11.10
2022-11-10T04:56:27.089Z,11.10
2022-11-10T04:58:54.582Z,11.10
2022-11-10T05:01:23.864Z,11.00
2022-11-10T05:03:51.508Z,11.00
2022-11-10T05:06:18.427Z,11.00
2022-11-10T05:08:45.987Z,11.00
2022-11-10T05:11:13.462Z,11.00
2022-11-10T05:13:40.358Z,10.90
2022-11-10T05:16:07.557Z,10.90
2022-11-10T05:18:34.370Z,10.90
2022-11-10T05:21:01.031Z,10.80
2022-11-10T05:23:39.900Z,10.70
2022-11-10T05:26:14.584Z,10.80
2022-11-10T05:28:43.033Z,10.80
2022-11-10T05:31:10.342Z,10.80
2022-11-10T05:33:37.860Z,10.70
2022-11-10T05:36:06.335Z,10.70
2022-11-10T05:38:33.022Z,10.70
2022-11-10T05:40:59.735Z,10.70
2022-11-10T05:43:26.800Z,10.60
2022-11-10T05:45:53.521Z,10.60
2022-11-10T05:48:20.290Z,10.60
2022-11-10T05:50:46.992Z,10.60
2022-11-10T05:53:13.935Z,12.40
2022-11-10T05:55:40.782Z,10.50
2022-11-10T05:58:07.740Z,10.50
2022-11-10T06:00:34.435Z,10.50
2022-11-10T06:03:14.177Z,10.50
2022-11-10T06:05:40.850Z,10.50
2022-11-10T06:08:07.740Z,10.60
2022-11-10T06:10:35.996Z,10.50
2022-11-10T06:13:03.460Z,10.40
2022-11-10T06:15:30.754Z,10.50
2022-11-10T06:17:58.001Z,10.40
2022-11-10T06:20:25.420Z,10.40
2022-11-10T06:23:06.571Z,10.40
2022-11-10T06:25:35.131Z,10.40
2022-11-10T06:28:02.204Z,10.40
2022-11-10T06:30:30.614Z,10.40
2022-11-10T06:32:57.164Z,10.30
2022-11-10T06:35:24.506Z,10.30
2022-11-10T06:38:02.665Z,10.30
2022-11-10T06:40:30.078Z,10.30
2022-11-10T06:42:57.116Z,10.30
2022-11-10T06:45:24.930Z,10.30
2022-11-10T06:48:05.406Z,10.30
2022-11-10T06:50:32.715Z,10.30
2022-11-10T06:53:00.664Z,10.30
2022-11-10T06:55:28.146Z,10.30
2022-11-10T06:57:54.767Z,10.30
2022-11-10T07:00:21.985Z,10.30
2022-11-10T07:02:48.621Z,10.30
2022-11-10T07:05:18.207Z,10.30
2022-11-10T07:07:44.785Z,10.40
2022-11-10T07:10:11.343Z,10.40
2022-11-10T07:12:37.872Z,10.40
2022-11-10T07:15:05.535Z,10.50
2022-11-10T07:17:32.060Z,10.50
2022-11-10T07:19:58.585Z,10.60
2022-11-10T07:22:25.162Z,10.70
2022-11-10T07:24:51.802Z,10.60
2022-11-10T07:27:18.356Z,10.70
2022-11-10T07:29:45.047Z,10.80
2022-11-10T07:32:11.654Z,10.80
2022-11-10T07:34:38.232Z,10.80
2022-11-10T07:37:04.824Z,10.80
2022-11-10T07:39:31.554Z,10.90
2022-11-10T07:41:58.097Z,10.90
2022-11-10T07:44:24.732Z,10.90
2022-11-10T07:46:51.259Z,10.90
2022-11-10T07:49:17.850Z,10.90
2022-11-10T07:51:44.431Z,10.90
2022-11-10T07:54:11.080Z,10.90
2022-11-10T07:56:37.663Z,11.00
2022-11-10T07:59:04.307Z,11.00
2022-11-10T08:01:31.127Z,11.00
2022-11-10T08:03:57.752Z,11.00
2022-11-10T08:06:24.357Z,11.00
2022-11-10T08:08:51.053Z,10.00
2022-11-10T08:11:17.810Z,11.10
2022-11-10T08:13:44.381Z,11.10
2022-11-10T08:16:10.974Z,11.10
2022-11-10T08:18:37.511Z,10.20
2022-11-10T08:21:04.838Z,11.10
2022-11-10T08:23:31.410Z,11.20
2022-11-10T08:25:59.592Z,11.20
2022-11-10T08:28:26.379Z,11.20
2022-11-10T08:30:53.091Z,11.30
2022-11-10T08:33:21.640Z,11.30
2022-11-10T08:35:50.976Z,11.40
2022-11-10T08:38:22.518Z,11.50
2022-11-10T08:40:49.223Z,11.50
2022-11-10T08:43:17.573Z,11.50
2022-11-10T08:45:45.287Z,11.50
2022-11-10T08:48:18.527Z,11.70
2022-11-10T08:50:45.881Z,11.60
2022-11-10T08:53:15.877Z,11.70
2022-11-10T08:55:43.707Z,11.80
2022-11-10T08:58:13.689Z,11.90
2022-11-10T09:00:40.293Z,12.00
2022-11-10T09:03:10.686Z,12.10
2022-11-10T09:05:37.313Z,12.10
2022-11-10T09:08:04.532Z,12.20
2022-11-10T09:10:32.227Z,12.20
2022-11-10T09:13:01.271Z,12.30
2022-11-10T09:15:28.726Z,12.30
2022-11-10T09:17:58.414Z,12.30
2022-11-10T09:20:25.978Z,12.40
2022-11-10T09:22:52.545Z,12.50
2022-11-10T09:25:19.166Z,12.60
2022-11-10T09:27:45.722Z,12.60
2022-11-10T09:30:17.413Z,12.50
2022-11-10T09:32:46.564Z,12.50
2022-11-10T09:35:13.630Z,12.40
2022-11-10T09:37:40.284Z,12.40
2022-11-10T09:40:12.885Z,12.40
2022-11-10T09:42:41.338Z,12.40
2022-11-10T09:45:25.356Z,12.40
2022-11-10T09:48:01.819Z,12.50
2022-11-10T09:50:36.506Z,12.60
2022-11-10T09:53:06.027Z,12.50
2022-11-10T09:55:51.151Z,14.20
2022-11-10T09:58:18.601Z,12.50
2022-11-10T10:01:03.984Z,12.50
2022-11-10T10:03:32.159Z,12.60
2022-11-10T10:06:10.839Z,12.70
2022-11-10T10:09:01.987Z,12.80
2022-11-10T10:12:03.532Z,12.80
2022-11-10T10:15:02.934Z,12.80
2022-11-10T10:17:44.735Z,12.80
2022-11-10T10:20:27.255Z,12.70
2022-11-10T10:23:05.087Z,12.60
2022-11-10T10:25:32.893Z,12.60
2022-11-10T10:28:18.693Z,12.60
2022-11-10T10:30:45.778Z,12.60
2022-11-10T10:33:21.868Z,12.60
2022-11-10T10:35:50.393Z,12.60
2022-11-10T10:38:25.992Z,12.70
2022-11-10T10:40:57.279Z,12.80
2022-11-10T10:43:23.862Z,13.00
2022-11-10T10:46:08.816Z,13.00
2022-11-10T10:48:35.963Z,13.10
2022-11-10T10:51:02.622Z,13.10
2022-11-10T10:53:29.229Z,13.20
2022-11-10T10:56:18.028Z,13.20
2022-11-10T10:59:02.643Z,13.30
2022-11-10T11:01:34.348Z,13.30
2022-11-10T11:04:05.413Z,13.30
2022-11-10T11:06:33.921Z,13.20
2022-11-10T11:09:17.521Z,13.30
2022-11-10T11:11:45.791Z,13.30
2022-11-10T11:14:27.109Z,13.30
2022-11-10T11:17:03.118Z,13.30
2022-11-10T11:19:33.383Z,13.40
2022-11-10T11:22:37.490Z,13.40
2022-11-10T11:25:29.386Z,13.50
2022-11-10T11:28:23.551Z,13.60
2022-11-10T11:31:19.253Z,13.60
2022-11-10T11:33:53.054Z,13.40
2022-11-10T11:36:51.403Z,13.30
2022-11-10T11:39:48.259Z,13.20
2022-11-10T11:42:42.681Z,13.20
2022-11-10T11:45:30.798Z,13.20
2022-11-10T11:48:33.477Z,13.40
2022-11-10T11:51:28.366Z,13.50
2022-11-10T11:54:23.741Z,13.60
2022-11-10T11:56:51.375Z,13.50
2022-11-10T11:59:36.436Z,13.60
2022-11-10T12:02:48.679Z,13.60
2022-11-10T12:05:43.914Z,13.70
2022-11-10T12:08:28.193Z,13.70
2022-11-10T12:11:35.656Z,13.70
2022-11-10T12:14:26.276Z,13.60
2022-11-10T12:17:06.704Z,13.60
2022-11-10T12:19:42.378Z,13.60
2022-11-10T12:22:20.513Z,13.60
2022-11-10T12:24:53.101Z,13.60
2022-11-10T12:27:27.101Z,13.60
2022-11-10T12:30:01.471Z,13.10
2022-11-10T12:32:48.732Z,13.60
2022-11-10T12:35:34.794Z,13.60
2022-11-10T12:38:11.151Z,13.70
2022-11-10T12:40:42.313Z,13.70
2022-11-10T12:43:22.643Z,13.70
2022-11-10T12:45:54.374Z,13.80
2022-11-10T12:48:22.335Z,13.80
2022-11-10T12:51:07.179Z,13.90
2022-11-10T12:53:43.289Z,13.90
2022-11-10T12:56:25.639Z,13.90
2022-11-10T12:59:20.148Z,14.00
2022-11-10T13:01:51.167Z,14.00
2022-11-10T13:04:19.912Z,14.10
2022-11-10T13:07:01.548Z,14.10
2022-11-10T13:09:32.078Z,14.10
2022-11-10T13:12:22.840Z,14.10
2022-11-10T13:14:49.779Z,14.10
2022-11-10T13:17:28.532Z,14.10
2022-11-10T13:20:01.642Z,14.60
2022-11-10T13:22:40.577Z,14.20
2022-11-10T13:25:38.095Z,14.30
2022-11-10T13:28:08.656Z,14.30
2022-11-10T13:30:46.333Z,14.40
2022-11-10T13:33:34.069Z,14.40
2022-11-10T13:36:00.793Z,14.40
2022-11-10T13:38:36.491Z,14.50
2022-11-10T13:41:22.532Z,14.60
2022-11-10T13:43:54.525Z,14.60
2022-11-10T13:46:36.578Z,14.50
2022-11-10T13:49:21.422Z,14.40
2022-11-10T13:52:05.880Z,14.40
2022-11-10T13:54:47.704Z,14.30
2022-11-10T13:57:31.067Z,14.20
2022-11-10T14:00:01.199Z,14.20
2022-11-10T14:02:33.969Z,14.20
2022-11-10T14:05:01.267Z,14.20
2022-11-10T14:07:37.655Z,14.20
2022-11-10T14:10:11.207Z,14.30
2022-11-10T14:12:45.230Z,14.20
2022-11-10T14:15:17.941Z,14.10
2022-11-10T14:17:49.494Z,14.10
2022-11-10T14:20:27.062Z,14.00
2022-11-10T14:22:54.483Z,14.00
2022-11-10T14:25:25.384Z,13.90
2022-11-10T14:27:57.731Z,13.90
2022-11-10T14:30:25.692Z,13.80
2022-11-10T14:33:12.059Z,13.70
2022-11-10T14:35:51.292Z,13.70
2022-11-10T14:38:24.100Z,13.70
2022-11-10T14:40:56.306Z,13.70
2022-11-10T14:43:37.277Z,13.70
2022-11-10T14:46:06.955Z,13.70
2022-11-10T14:48:37.778Z,13.60
2022-11-10T14:51:14.904Z,13.60
2022-11-10T14:53:47.977Z,13.60
2022-11-10T14:56:22.337Z,13.70
2022-11-10T14:58:50.030Z,13.70
2022-11-10T15:01:28.328Z,13.70
2022-11-10T15:03:56.446Z,13.70
2022-11-10T15:06:23.331Z,13.70
2022-11-10T15:08:49.907Z,13.60
2022-11-10T15:11:52.874Z,13.60
2022-11-10T15:14:39.680Z,13.60
2022-11-10T15:17:11.978Z,13.50
2022-11-10T15:19:45.679Z,13.50
2022-11-10T15:22:29.570Z,13.50
2022-11-10T15:24:59.241Z,13.40
2022-11-10T15:27:31.498Z,13.40
2022-11-10T15:29:59.980Z,13.40
2022-11-10T15:32:35.328Z,13.40
2022-11-10T15:35:22.531Z,13.30
2022-11-10T15:38:00.758Z,13.30
2022-11-10T15:40:42.564Z,13.30
2022-11-10T15:43:13.987Z,13.20
2022-11-10T15:45:42.426Z,13.10
2022-11-10T15:48:14.098Z,13.10
2022-11-10T15:50:43.223Z,13.00
2022-11-10T15:53:19.955Z,13.00
2022-11-10T15:55:46.690Z,12.90
2022-11-10T15:58:13.799Z,13.00
2022-11-10T16:00:40.449Z,13.00
2022-11-10T16:03:11.013Z,13.00
2022-11-10T16:05:40.074Z,12.90
2022-11-10T16:08:21.742Z,12.80
2022-11-10T16:10:52.035Z,12.70
2022-11-10T16:13:26.260Z,12.70
2022-11-10T16:15:53.782Z,12.70
2022-11-10T16:18:23.071Z,12.80
2022-11-10T16:20:51.465Z,12.60
2022-11-10T16:23:19.055Z,12.70
2022-11-10T16:25:48.351Z,12.60
2022-11-10T16:28:20.617Z,12.60
2022-11-10T16:30:47.506Z,12.60
2022-11-10T16:33:15.872Z,12.60
2022-11-10T16:35:43.003Z,12.50
2022-11-10T16:38:20.465Z,12.40
2022-11-10T16:40:52.415Z,12.30
2022-11-10T16:43:19.329Z,12.10
2022-11-10T16:45:48.553Z,12.20
2022-11-10T16:48:18.045Z,12.10
2022-11-10T16:50:46.105Z,12.10
2022-11-10T16:53:17.220Z,12.10
2022-11-10T16:55:44.657Z,12.20
2022-11-10T16:58:11.801Z,12.20
2022-11-10T17:00:39.362Z,12.10
2022-11-10T17:03:12.783Z,12.10
2022-11-10T17:05:39.881Z,12.10
2022-11-10T17:08:07.290Z,12.10
2022-11-10T17:10:33.921Z,12.20
2022-11-10T17:13:00.495Z,12.10
2022-11-10T17:15:27.099Z,12.20
2022-11-10T17:18:05.894Z,12.20
2022-11-10T17:20:36.154Z,12.30
2022-11-10T17:23:03.455Z,12.40
2022-11-10T17:25:33.289Z,12.30
2022-11-10T17:28:00.180Z,12.10
2022-11-10T17:30:27.310Z,12.30
2022-11-10T17:33:04.767Z,13.80
2022-11-10T17:35:37.699Z,12.40
2022-11-10T17:38:11.785Z,12.30
2022-11-10T17:40:40.422Z,12.30
2022-11-10T17:43:10.313Z,12.40
2022-11-10T17:45:36.892Z,12.50
2022-11-10T17:48:03.671Z,12.50
2022-11-10T17:50:31.393Z,12.50
2022-11-10T17:53:01.046Z,12.50
2022-11-10T17:55:33.775Z,12.60
2022-11-10T17:58:00.895Z,12.70
2022-11-10T18:00:27.571Z,12.80
2022-11-10T18:02:55.442Z,12.80
2022-11-10T18:05:22.217Z,12.80
2022-11-10T18:07:51.965Z,12.80
2022-11-10T18:10:18.568Z,12.90
2022-11-10T18:12:45.126Z,13.00
2022-11-10T18:15:14.051Z,12.90
2022-11-10T18:17:41.598Z,13.00
2022-11-10T18:20:12.778Z,12.90
2022-11-10T18:22:40.214Z,12.90
2022-11-10T18:25:09.007Z,12.90
2022-11-10T18:27:36.472Z,12.90
2022-11-10T18:30:04.088Z,12.90
2022-11-10T18:32:30.711Z,12.90
2022-11-10T18:34:57.291Z,12.90
2022-11-10T18:37:24.072Z,12.90
2022-11-10T18:39:50.682Z,12.80
2022-11-10T18:42:17.274Z,12.80
2022-11-10T18:44:43.938Z,12.90
2022-11-10T18:47:12.876Z,13.00
2022-11-10T18:49:39.437Z,13.00
2022-11-10T18:52:06.455Z,13.00
2022-11-10T18:54:33.754Z,13.00
2022-11-10T18:57:00.355Z,13.00
2022-11-10T18:59:26.993Z,13.00
2022-11-10T19:01:53.959Z,13.00
2022-11-10T19:04:20.809Z,13.00
2022-11-10T19:06:47.577Z,12.90
2022-11-10T19:09:14.239Z,12.80
2022-11-10T19:11:40.798Z,13.00
2022-11-10T19:14:07.469Z,13.00
2022-11-10T19:16:34.662Z,12.80
2022-11-10T19:19:01.829Z,12.80
2022-11-10T19:21:31.271Z,12.70
2022-11-10T19:23:58.398Z,12.80
2022-11-10T19:26:26.530Z,12.80
2022-11-10T19:28:55.607Z,12.60
2022-11-10T19:31:23.639Z,12.80
2022-11-10T19:33:53.443Z,12.70
2022-11-10T19:36:25.453Z,12.70
2022-11-10T19:38:54.117Z,12.70
2022-11-10T19:41:31.167Z,12.70
2022-11-10T19:43:59.682Z,12.70
2022-11-10T19:46:30.218Z,12.80
2022-11-10T19:48:57.338Z,12.70
2022-11-10T19:51:25.148Z,12.70
2022-11-10T19:53:57.900Z,12.70
2022-11-10T19:56:27.721Z,12.70
2022-11-10T19:58:58.425Z,12.70
2022-11-10T20:01:26.561Z,12.70
2022-11-10T20:03:53.337Z,12.70
2022-11-10T20:06:22.541Z,12.70
2022-11-10T20:08:50.008Z,12.70
2022-11-10T20:11:22.192Z,12.70
2022-11-10T20:13:54.434Z,12.60
2022-11-10T20:16:21.936Z,12.60
2022-11-10T20:18:48.505Z,12.50
2022-11-10T20:21:17.722Z,12.50
2022-11-10T20:23:44.391Z,12.60
2022-11-10T20:26:16.473Z,12.60
2022-11-10T20:28:44.024Z,12.50
2022-11-10T20:31:16.587Z,12.50
2022-11-10T20:33:43.642Z,12.40
2022-11-10T20:36:20.309Z,12.40
2022-11-10T20:38:48.623Z,12.20
2022-11-10T20:41:18.701Z,12.50
2022-11-10T20:43:45.737Z,11.60
2022-11-10T20:46:40.263Z,12.50
2022-11-10T20:49:03.576Z,12.50
2022-11-10T20:51:30.752Z,12.50
2022-11-10T20:54:00.166Z,12.50
2022-11-10T20:56:29.650Z,12.50
2022-11-10T20:58:57.372Z,12.60
2022-11-10T21:01:24.264Z,12.70
2022-11-10T21:03:51.298Z,12.50
2022-11-10T21:06:18.142Z,12.50
2022-11-10T21:08:44.725Z,12.60
2022-11-10T21:11:32.554Z,12.50
2022-11-10T21:14:01.485Z,12.40
2022-11-10T21:16:28.523Z,12.30
2022-11-10T21:18:56.302Z,12.40
2022-11-10T21:21:34.233Z,12.40
2022-11-10T21:24:04.944Z,12.30
2022-11-10T21:26:34.066Z,12.40
2022-11-10T21:29:02.164Z,12.40
2022-11-10T21:31:30.506Z,12.50
2022-11-10T21:33:58.081Z,12.50
2022-11-10T21:36:29.081Z,12.30
2022-11-10T21:38:57.261Z,12.20
2022-11-10T21:41:24.380Z,12.20
2022-11-10T21:43:51.281Z,12.10
2022-11-10T21:46:18.342Z,12.10
2022-11-10T21:48:45.043Z,12.00
2022-11-10T21:51:14.020Z,11.90
2022-11-10T21:53:41.805Z,11.80
2022-11-10T21:56:10.194Z,11.80
2022-11-10T21:58:37.358Z,11.70
2022-11-10T22:01:10.504Z,11.70
2022-11-10T22:03:37.975Z,11.70
2022-11-10T22:06:04.685Z,11.70
2022-11-10T22:08:31.823Z,11.70
2022-11-10T22:11:17.259Z,11.60
2022-11-10T22:14:02.340Z,11.50
2022-11-10T22:17:02.329Z,11.40
2022-11-10T22:19:29.389Z,11.30
2022-11-10T22:21:59.530Z,11.20
2022-11-10T22:24:29.355Z,11.20
2022-11-10T22:26:58.087Z,11.20
2022-11-10T22:29:31.169Z,11.30
2022-11-10T22:32:02.137Z,11.20
2022-11-10T22:34:28.728Z,11.20
2022-11-10T22:36:55.481Z,11.20
2022-11-10T22:39:22.374Z,11.10
2022-11-10T22:42:08.888Z,11.10
2022-11-10T22:44:36.280Z,11.10
2022-11-10T22:47:06.384Z,11.10
2022-11-10T22:49:33.084Z,11.10
2022-11-10T22:52:01.058Z,11.10
2022-11-10T22:54:28.550Z,11.00
2022-11-10T22:56:55.150Z,11.00
2022-11-10T22:59:22.799Z,11.10
2022-11-10T23:01:51.557Z,11.10
2022-11-10T23:04:18.213Z,10.40
2022-11-10T23:06:45.330Z,10.80
2022-11-10T23:09:12.182Z,10.70
2022-11-10T23:11:38.769Z,10.70
2022-11-10T23:14:05.673Z,10.70
2022-11-10T23:16:34.431Z,9.70
2022-11-10T23:19:05.271Z,10.60
2022-11-10T23:21:31.864Z,10.50
2022-11-10T23:23:58.583Z,10.50
2022-11-10T23:26:29.958Z,10.40
2022-11-10T23:28:56.588Z,10.40
2022-11-10T23:31:30.055Z,10.40
2022-11-10T23:33:58.305Z,10.30
2022-11-10T23:36:27.364Z,10.40
2022-11-10T23:38:54.943Z,10.30
2022-11-10T23:41:32.300Z,10.30
2022-11-10T23:43:58.939Z,10.30
2022-11-10T23:46:25.538Z,10.40
2022-11-10T23:48:52.148Z,10.30
2022-11-10T23:51:19.470Z,10.20
2022-11-10T23:53:46.741Z,10.10
2022-11-10T23:56:19.358Z,10.20
2022-11-10T23:58:45.982Z,10.20
